sensor_id;sensor_type;location;lat;lon;timestamp;P1;durP1;ratioP1;P2;durP2;ratioP2
14470;SDS011;7321;50.802;4.336;2023-02-15T00:01:44;57.07;;;38.70;;
14470;SDS011;7321;50.802;4.336;2023-02-15T00:04:14;55.33;;;37.13;;
14470;SDS011;7321;50.802;4.336;2023-02-15T00:06:41;53.47;;;35.87;;
14470;SDS011;7321;50.802;4.336;2023-02-15T00:09:08;50.63;;;35.73;;
14470;SDS011;7321;50.802;4.336;2023-02-15T00:11:35;53.83;;;36.10;;
14470;SDS011;7321;50.802;4.336;2023-02-15T00:14:19;48.10;;;33.73;;
14470;SDS011;7321;50.802;4.336;2023-02-15T00:16:48;51.10;;;34.97;;
14470;SDS011;7321;50.802;4.336;2023-02-15T00:19:16;51.07;;;33.43;;
14470;SDS011;7321;50.802;4.336;2023-02-15T00:21:43;53.30;;;35.43;;
14470;SDS011;7321;50.802;4.336;2023-02-15T00:24:10;54.93;;;37.53;;
14470;SDS011;7321;50.802;4.336;2023-02-15T00:26:38;54.90;;;37.63;;
14470;SDS011;7321;50.802;4.336;2023-02-15T00:29:05;53.80;;;36.93;;
14470;SDS011;7321;50.802;4.336;2023-02-15T00:31:32;52.60;;;35.50;;
14470;SDS011;7321;50.802;4.336;2023-02-15T00:34:10;49.23;;;34.57;;
14470;SDS011;7321;50.802;4.336;2023-02-15T00:36:41;49.10;;;34.80;;
14470;SDS011;7321;50.802;4.336;2023-02-15T00:39:07;48.57;;;33.20;;
14470;SDS011;7321;50.802;4.336;2023-02-15T00:41:33;56.60;;;35.63;;
14470;SDS011;7321;50.802;4.336;2023-02-15T00:43:59;53.00;;;34.60;;
14470;SDS011;7321;50.802;4.336;2023-02-15T00:46:25;53.13;;;35.47;;
14470;SDS011;7321;50.802;4.336;2023-02-15T00:48:51;50.53;;;33.07;;
14470;SDS011;7321;50.802;4.336;2023-02-15T00:51:17;51.73;;;34.53;;
14470;SDS011;7321;50.802;4.336;2023-02-15T00:53:43;52.90;;;34.57;;
14470;SDS011;7321;50.802;4.336;2023-02-15T00:56:09;50.63;;;33.07;;
14470;SDS011;7321;50.802;4.336;2023-02-15T00:58:36;50.20;;;33.90;;
14470;SDS011;7321;50.802;4.336;2023-02-15T01:01:06;50.00;;;33.80;;
14470;SDS011;7321;50.802;4.336;2023-02-15T01:03:34;52.10;;;33.63;;
14470;SDS011;7321;50.802;4.336;2023-02-15T01:06:00;54.03;;;35.40;;
14470;SDS011;7321;50.802;4.336;2023-02-15T01:08:26;51.53;;;35.57;;
14470;SDS011;7321;50.802;4.336;2023-02-15T01:10:52;49.77;;;32.97;;
14470;SDS011;7321;50.802;4.336;2023-02-15T01:13:19;50.97;;;32.70;;
14470;SDS011;7321;50.802;4.336;2023-02-15T01:15:44;49.70;;;33.67;;
14470;SDS011;7321;50.802;4.336;2023-02-15T01:18:11;50.03;;;33.10;;
14470;SDS011;7321;50.802;4.336;2023-02-15T01:20:37;48.57;;;32.17;;
14470;SDS011;7321;50.802;4.336;2023-02-15T01:23:06;48.90;;;31.90;;
14470;SDS011;7321;50.802;4.336;2023-02-15T01:25:33;46.23;;;32.93;;
14470;SDS011;7321;50.802;4.336;2023-02-15T01:28:00;51.27;;;32.93;;
14470;SDS011;7321;50.802;4.336;2023-02-15T01:30:26;53.70;;;33.53;;
14470;SDS011;7321;50.802;4.336;2023-02-15T01:32:52;49.77;;;32.50;;
14470;SDS011;7321;50.802;4.336;2023-02-15T01:35:18;49.43;;;33.23;;
14470;SDS011;7321;50.802;4.336;2023-02-15T01:37:44;50.43;;;30.77;;
14470;SDS011;7321;50.802;4.336;2023-02-15T01:40:13;47.27;;;31.13;;
14470;SDS011;7321;50.802;4.336;2023-02-15T01:42:42;48.03;;;32.17;;
14470;SDS011;7321;50.802;4.336;2023-02-15T01:47:45;48.43;;;32.57;;
14470;SDS011;7321;50.802;4.336;2023-02-15T01:50:29;51.93;;;33.67;;
14470;SDS011;7321;50.802;4.336;2023-02-15T01:53:27;51.70;;;32.93;;
14470;SDS011;7321;50.802;4.336;2023-02-15T01:56:05;50.77;;;32.57;;
14470;SDS011;7321;50.802;4.336;2023-02-15T01:58:38;48.50;;;32.90;;
14470;SDS011;7321;50.802;4.336;2023-02-15T02:01:04;49.97;;;34.13;;
14470;SDS011;7321;50.802;4.336;2023-02-15T02:06:07;47.60;;;31.90;;
14470;SDS011;7321;50.802;4.336;2023-02-15T02:08:33;54.60;;;34.23;;
14470;SDS011;7321;50.802;4.336;2023-02-15T02:11:00;49.07;;;32.80;;
14470;SDS011;7321;50.802;4.336;2023-02-15T02:13:26;57.50;;;34.87;;
14470;SDS011;7321;50.802;4.336;2023-02-15T02:15:58;50.33;;;33.37;;
14470;SDS011;7321;50.802;4.336;2023-02-15T02:35:05;53.90;;;32.97;;
14470;SDS011;7321;50.802;4.336;2023-02-15T02:40:20;58.93;;;34.10;;
14470;SDS011;7321;50.802;4.336;2023-02-15T02:42:54;55.93;;;34.20;;
14470;SDS011;7321;50.802;4.336;2023-02-15T02:45:32;55.97;;;33.73;;
14470;SDS011;7321;50.802;4.336;2023-02-15T02:48:08;53.17;;;33.97;;
14470;SDS011;7321;50.802;4.336;2023-02-15T02:50:40;51.87;;;33.23;;
14470;SDS011;7321;50.802;4.336;2023-02-15T02:53:07;52.77;;;32.97;;
14470;SDS011;7321;50.802;4.336;2023-02-15T03:03:58;49.83;;;32.03;;
14470;SDS011;7321;50.802;4.336;2023-02-15T03:06:33;53.03;;;32.93;;
14470;SDS011;7321;50.802;4.336;2023-02-15T03:09:03;48.07;;;31.37;;
14470;SDS011;7321;50.802;4.336;2023-02-15T03:11:40;50.40;;;31.83;;
14470;SDS011;7321;50.802;4.336;2023-02-15T03:14:08;45.70;;;29.17;;
14470;SDS011;7321;50.802;4.336;2023-02-15T03:16:36;45.90;;;30.77;;
14470;SDS011;7321;50.802;4.336;2023-02-15T03:19:11;47.50;;;30.87;;
14470;SDS011;7321;50.802;4.336;2023-02-15T03:24:20;47.33;;;30.43;;
14470;SDS011;7321;50.802;4.336;2023-02-15T03:26:48;43.27;;;29.00;;
14470;SDS011;7321;50.802;4.336;2023-02-15T03:29:17;49.33;;;30.47;;
14470;SDS011;7321;50.802;4.336;2023-02-15T03:31:46;46.37;;;30.27;;
14470;SDS011;7321;50.802;4.336;2023-02-15T03:34:17;48.87;;;30.37;;
14470;SDS011;7321;50.802;4.336;2023-02-15T03:39:47;45.80;;;29.37;;
14470;SDS011;7321;50.802;4.336;2023-02-15T03:42:11;46.30;;;29.13;;
14470;SDS011;7321;50.802;4.336;2023-02-15T03:44:47;52.00;;;30.87;;
14470;SDS011;7321;50.802;4.336;2023-02-15T03:47:18;49.50;;;31.13;;
14470;SDS011;7321;50.802;4.336;2023-02-15T03:49:50;45.67;;;29.60;;
14470;SDS011;7321;50.802;4.336;2023-02-15T03:52:18;46.63;;;30.33;;
14470;SDS011;7321;50.802;4.336;2023-02-15T03:54:46;46.70;;;30.87;;
14470;SDS011;7321;50.802;4.336;2023-02-15T04:00:15;46.80;;;30.57;;
14470;SDS011;7321;50.802;4.336;2023-02-15T04:03:38;48.10;;;30.63;;
14470;SDS011;7321;50.802;4.336;2023-02-15T04:06:06;47.77;;;30.53;;
14470;SDS011;7321;50.802;4.336;2023-02-15T04:08:32;47.07;;;30.90;;
14470;SDS011;7321;50.802;4.336;2023-02-15T04:11:16;45.27;;;30.70;;
14470;SDS011;7321;50.802;4.336;2023-02-15T04:13:42;52.50;;;31.70;;
14470;SDS011;7321;50.802;4.336;2023-02-15T04:16:10;47.07;;;30.37;;
14470;SDS011;7321;50.802;4.336;2023-02-15T04:18:37;45.73;;;30.27;;
14470;SDS011;7321;50.802;4.336;2023-02-15T04:21:24;52.10;;;32.53;;
14470;SDS011;7321;50.802;4.336;2023-02-15T04:24:10;52.37;;;33.17;;
14470;SDS011;7321;50.802;4.336;2023-02-15T04:26:55;48.87;;;31.47;;
14470;SDS011;7321;50.802;4.336;2023-02-15T04:29:21;49.07;;;31.73;;
14470;SDS011;7321;50.802;4.336;2023-02-15T04:31:48;46.90;;;31.97;;
14470;SDS011;7321;50.802;4.336;2023-02-15T04:34:15;49.90;;;32.13;;
14470;SDS011;7321;50.802;4.336;2023-02-15T04:36:41;48.00;;;30.90;;
14470;SDS011;7321;50.802;4.336;2023-02-15T04:39:07;48.23;;;32.40;;
14470;SDS011;7321;50.802;4.336;2023-02-15T04:41:34;44.70;;;30.03;;
14470;SDS011;7321;50.802;4.336;2023-02-15T04:44:00;45.80;;;29.33;;
14470;SDS011;7321;50.802;4.336;2023-02-15T04:46:27;44.80;;;30.47;;
14470;SDS011;7321;50.802;4.336;2023-02-15T04:48:54;49.57;;;30.03;;
14470;SDS011;7321;50.802;4.336;2023-02-15T04:51:20;43.70;;;29.13;;
14470;SDS011;7321;50.802;4.336;2023-02-15T04:53:46;42.13;;;29.70;;
14470;SDS011;7321;50.802;4.336;2023-02-15T04:56:11;43.63;;;30.23;;
14470;SDS011;7321;50.802;4.336;2023-02-15T04:58:37;45.70;;;31.37;;
14470;SDS011;7321;50.802;4.336;2023-02-15T05:01:06;42.03;;;30.00;;
14470;SDS011;7321;50.802;4.336;2023-02-15T05:03:32;44.37;;;31.30;;
14470;SDS011;7321;50.802;4.336;2023-02-15T05:05:58;45.43;;;28.17;;
14470;SDS011;7321;50.802;4.336;2023-02-15T05:08:24;44.43;;;29.90;;
14470;SDS011;7321;50.802;4.336;2023-02-15T05:10:50;44.47;;;29.50;;
14470;SDS011;7321;50.802;4.336;2023-02-15T05:13:16;46.97;;;28.97;;
14470;SDS011;7321;50.802;4.336;2023-02-15T05:15:45;41.93;;;29.33;;
14470;SDS011;7321;50.802;4.336;2023-02-15T05:18:13;42.70;;;28.80;;
14470;SDS011;7321;50.802;4.336;2023-02-15T05:20:39;43.07;;;29.30;;
14470;SDS011;7321;50.802;4.336;2023-02-15T05:23:05;42.20;;;27.67;;
14470;SDS011;7321;50.802;4.336;2023-02-15T05:25:30;41.77;;;28.33;;
14470;SDS011;7321;50.802;4.336;2023-02-15T05:28:15;43.00;;;27.27;;
14470;SDS011;7321;50.802;4.336;2023-02-15T05:30:49;39.53;;;28.33;;
14470;SDS011;7321;50.802;4.336;2023-02-15T05:33:19;41.87;;;28.60;;
14470;SDS011;7321;50.802;4.336;2023-02-15T05:35:48;41.90;;;28.07;;
14470;SDS011;7321;50.802;4.336;2023-02-15T05:38:13;42.07;;;28.00;;
14470;SDS011;7321;50.802;4.336;2023-02-15T05:40:39;46.17;;;28.60;;
14470;SDS011;7321;50.802;4.336;2023-02-15T05:43:05;43.10;;;28.13;;
14470;SDS011;7321;50.802;4.336;2023-02-15T05:45:31;44.33;;;29.33;;
14470;SDS011;7321;50.802;4.336;2023-02-15T05:48:00;43.17;;;28.37;;
14470;SDS011;7321;50.802;4.336;2023-02-15T05:50:28;49.03;;;29.30;;
14470;SDS011;7321;50.802;4.336;2023-02-15T05:52:54;47.07;;;29.97;;
14470;SDS011;7321;50.802;4.336;2023-02-15T05:55:21;47.37;;;27.97;;
14470;SDS011;7321;50.802;4.336;2023-02-15T05:57:46;47.27;;;29.53;;
14470;SDS011;7321;50.802;4.336;2023-02-15T06:00:13;51.63;;;30.37;;
14470;SDS011;7321;50.802;4.336;2023-02-15T06:02:39;46.33;;;28.57;;
14470;SDS011;7321;50.802;4.336;2023-02-15T06:05:05;45.07;;;30.47;;
14470;SDS011;7321;50.802;4.336;2023-02-15T06:07:31;49.77;;;30.47;;
14470;SDS011;7321;50.802;4.336;2023-02-15T06:09:57;49.23;;;29.30;;
14470;SDS011;7321;50.802;4.336;2023-02-15T06:12:23;43.50;;;29.67;;
14470;SDS011;7321;50.802;4.336;2023-02-15T06:14:49;50.60;;;30.93;;
14470;SDS011;7321;50.802;4.336;2023-02-15T06:17:16;46.47;;;29.97;;
14470;SDS011;7321;50.802;4.336;2023-02-15T06:19:43;44.67;;;29.80;;
14470;SDS011;7321;50.802;4.336;2023-02-15T06:22:08;48.87;;;29.97;;
14470;SDS011;7321;50.802;4.336;2023-02-15T06:24:34;44.37;;;30.17;;
14470;SDS011;7321;50.802;4.336;2023-02-15T06:27:10;43.43;;;29.37;;
14470;SDS011;7321;50.802;4.336;2023-02-15T06:29:36;47.20;;;30.30;;
14470;SDS011;7321;50.802;4.336;2023-02-15T06:34:55;42.73;;;30.27;;
14470;SDS011;7321;50.802;4.336;2023-02-15T06:37:21;44.93;;;29.97;;
14470;SDS011;7321;50.802;4.336;2023-02-15T06:39:46;43.70;;;30.00;;
14470;SDS011;7321;50.802;4.336;2023-02-15T06:42:14;48.87;;;31.47;;
14470;SDS011;7321;50.802;4.336;2023-02-15T06:44:43;50.53;;;30.43;;
14470;SDS011;7321;50.802;4.336;2023-02-15T06:47:09;51.07;;;31.97;;
14470;SDS011;7321;50.802;4.336;2023-02-15T06:49:35;44.77;;;29.77;;
14470;SDS011;7321;50.802;4.336;2023-02-15T06:52:01;46.47;;;30.57;;
14470;SDS011;7321;50.802;4.336;2023-02-15T06:54:28;44.47;;;30.30;;
14470;SDS011;7321;50.802;4.336;2023-02-15T06:56:54;49.23;;;30.47;;
14470;SDS011;7321;50.802;4.336;2023-02-15T06:59:20;48.27;;;31.40;;
14470;SDS011;7321;50.802;4.336;2023-02-15T07:04:12;45.20;;;30.23;;
14470;SDS011;7321;50.802;4.336;2023-02-15T07:06:44;52.30;;;35.77;;
14470;SDS011;7321;50.802;4.336;2023-02-15T07:09:10;50.93;;;33.00;;
14470;SDS011;7321;50.802;4.336;2023-02-15T07:11:37;51.37;;;32.47;;
14470;SDS011;7321;50.802;4.336;2023-02-15T07:14:22;47.87;;;31.17;;
14470;SDS011;7321;50.802;4.336;2023-02-15T07:16:48;47.63;;;30.63;;
14470;SDS011;7321;50.802;4.336;2023-02-15T07:19:14;49.50;;;31.80;;
14470;SDS011;7321;50.802;4.336;2023-02-15T07:21:40;48.47;;;31.10;;
14470;SDS011;7321;50.802;4.336;2023-02-15T07:24:05;52.53;;;32.47;;
14470;SDS011;7321;50.802;4.336;2023-02-15T07:26:32;47.77;;;31.60;;
14470;SDS011;7321;50.802;4.336;2023-02-15T07:28:57;48.50;;;30.60;;
14470;SDS011;7321;50.802;4.336;2023-02-15T07:31:23;50.93;;;32.73;;
14470;SDS011;7321;50.802;4.336;2023-02-15T07:33:49;52.10;;;32.50;;
14470;SDS011;7321;50.802;4.336;2023-02-15T07:36:15;48.57;;;31.30;;
14470;SDS011;7321;50.802;4.336;2023-02-15T07:38:41;49.53;;;31.97;;
14470;SDS011;7321;50.802;4.336;2023-02-15T07:41:12;56.03;;;34.40;;
14470;SDS011;7321;50.802;4.336;2023-02-15T07:43:40;59.03;;;32.60;;
14470;SDS011;7321;50.802;4.336;2023-02-15T07:46:08;56.63;;;33.07;;
14470;SDS011;7321;50.802;4.336;2023-02-15T07:48:37;51.60;;;33.00;;
14470;SDS011;7321;50.802;4.336;2023-02-15T07:51:04;53.07;;;31.10;;
14470;SDS011;7321;50.802;4.336;2023-02-15T07:53:31;55.93;;;32.10;;
14470;SDS011;7321;50.802;4.336;2023-02-15T07:55:58;52.50;;;33.43;;
14470;SDS011;7321;50.802;4.336;2023-02-15T07:58:29;51.70;;;32.40;;
14470;SDS011;7321;50.802;4.336;2023-02-15T08:01:14;52.67;;;34.00;;
14470;SDS011;7321;50.802;4.336;2023-02-15T08:03:40;48.07;;;32.23;;
14470;SDS011;7321;50.802;4.336;2023-02-15T08:06:06;46.37;;;31.93;;
14470;SDS011;7321;50.802;4.336;2023-02-15T08:08:35;48.93;;;32.70;;
14470;SDS011;7321;50.802;4.336;2023-02-15T08:11:04;45.97;;;30.33;;
14470;SDS011;7321;50.802;4.336;2023-02-15T08:13:49;44.00;;;28.40;;
14470;SDS011;7321;50.802;4.336;2023-02-15T08:16:26;45.77;;;29.77;;
14470;SDS011;7321;50.802;4.336;2023-02-15T08:19:10;38.17;;;27.80;;
14470;SDS011;7321;50.802;4.336;2023-02-15T08:21:39;45.20;;;28.37;;
14470;SDS011;7321;50.802;4.336;2023-02-15T08:24:07;43.77;;;29.87;;
14470;SDS011;7321;50.802;4.336;2023-02-15T08:26:34;42.20;;;28.83;;
14470;SDS011;7321;50.802;4.336;2023-02-15T08:29:00;41.67;;;27.73;;
14470;SDS011;7321;50.802;4.336;2023-02-15T08:31:28;41.53;;;29.17;;
14470;SDS011;7321;50.802;4.336;2023-02-15T08:33:54;41.50;;;28.20;;
14470;SDS011;7321;50.802;4.336;2023-02-15T08:36:24;46.20;;;30.27;;
14470;SDS011;7321;50.802;4.336;2023-02-15T08:38:56;38.33;;;27.67;;
14470;SDS011;7321;50.802;4.336;2023-02-15T08:41:24;38.93;;;28.17;;
14470;SDS011;7321;50.802;4.336;2023-02-15T08:43:53;45.70;;;30.17;;
14470;SDS011;7321;50.802;4.336;2023-02-15T08:46:20;45.67;;;29.50;;
14470;SDS011;7321;50.802;4.336;2023-02-15T08:48:47;45.40;;;30.00;;
14470;SDS011;7321;50.802;4.336;2023-02-15T08:51:14;46.03;;;28.17;;
14470;SDS011;7321;50.802;4.336;2023-02-15T08:53:41;40.33;;;28.90;;
14470;SDS011;7321;50.802;4.336;2023-02-15T08:56:10;49.43;;;29.80;;
14470;SDS011;7321;50.802;4.336;2023-02-15T08:58:37;40.90;;;27.83;;
14470;SDS011;7321;50.802;4.336;2023-02-15T09:01:13;44.27;;;29.23;;
14470;SDS011;7321;50.802;4.336;2023-02-15T09:03:44;41.77;;;27.90;;
14470;SDS011;7321;50.802;4.336;2023-02-15T09:06:11;39.00;;;28.17;;
14470;SDS011;7321;50.802;4.336;2023-02-15T09:08:37;40.33;;;28.27;;
14470;SDS011;7321;50.802;4.336;2023-02-15T09:11:08;40.10;;;28.00;;
14470;SDS011;7321;50.802;4.336;2023-02-15T09:13:37;43.57;;;28.10;;
14470;SDS011;7321;50.802;4.336;2023-02-15T09:16:04;42.97;;;28.53;;
14470;SDS011;7321;50.802;4.336;2023-02-15T09:18:32;36.43;;;28.17;;
14470;SDS011;7321;50.802;4.336;2023-02-15T09:21:04;41.50;;;27.90;;
14470;SDS011;7321;50.802;4.336;2023-02-15T09:23:41;42.37;;;29.23;;
14470;SDS011;7321;50.802;4.336;2023-02-15T09:26:09;44.60;;;29.37;;
14470;SDS011;7321;50.802;4.336;2023-02-15T09:28:37;50.30;;;29.93;;
14470;SDS011;7321;50.802;4.336;2023-02-15T09:33:42;42.97;;;30.07;;
14470;SDS011;7321;50.802;4.336;2023-02-15T09:36:51;39.87;;;30.47;;
14470;SDS011;7321;50.802;4.336;2023-02-15T09:39:15;46.30;;;31.30;;
14470;SDS011;7321;50.802;4.336;2023-02-15T09:56:25;50.20;;;31.07;;
14470;SDS011;7321;50.802;4.336;2023-02-15T10:10:06;50.27;;;30.33;;
14470;SDS011;7321;50.802;4.336;2023-02-15T10:12:57;48.10;;;29.90;;
14470;SDS011;7321;50.802;4.336;2023-02-15T10:26:47;45.07;;;31.67;;
14470;SDS011;7321;50.802;4.336;2023-02-15T10:34:31;44.07;;;29.23;;
14470;SDS011;7321;50.802;4.336;2023-02-15T10:37:17;45.73;;;28.33;;
14470;SDS011;7321;50.802;4.336;2023-02-15T10:48:27;39.40;;;26.83;;
14470;SDS011;7321;50.802;4.336;2023-02-15T10:54:09;34.30;;;25.50;;
14470;SDS011;7321;50.802;4.336;2023-02-15T10:56:50;41.70;;;25.23;;
14470;SDS011;7321;50.802;4.336;2023-02-15T11:02:09;33.33;;;23.53;;
14470;SDS011;7321;50.802;4.336;2023-02-15T11:08:07;34.67;;;24.90;;
14470;SDS011;7321;50.802;4.336;2023-02-15T11:10:39;35.83;;;24.13;;
14470;SDS011;7321;50.802;4.336;2023-02-15T11:13:11;36.77;;;25.30;;
14470;SDS011;7321;50.802;4.336;2023-02-15T11:15:46;36.80;;;25.63;;
14470;SDS011;7321;50.802;4.336;2023-02-15T11:20:55;38.90;;;24.93;;
14470;SDS011;7321;50.802;4.336;2023-02-15T11:23:27;35.63;;;25.30;;
14470;SDS011;7321;50.802;4.336;2023-02-15T11:25:58;38.80;;;25.47;;
14470;SDS011;7321;50.802;4.336;2023-02-15T11:29:01;36.17;;;25.80;;
14470;SDS011;7321;50.802;4.336;2023-02-15T11:31:25;35.63;;;25.23;;
14470;SDS011;7321;50.802;4.336;2023-02-15T11:33:58;34.43;;;25.17;;
14470;SDS011;7321;50.802;4.336;2023-02-15T11:36:31;37.27;;;25.83;;
14470;SDS011;7321;50.802;4.336;2023-02-15T11:39:02;38.70;;;25.53;;
14470;SDS011;7321;50.802;4.336;2023-02-15T11:41:41;38.17;;;26.43;;
14470;SDS011;7321;50.802;4.336;2023-02-15T11:44:13;36.20;;;25.90;;
14470;SDS011;7321;50.802;4.336;2023-02-15T11:46:42;34.47;;;26.30;;
14470;SDS011;7321;50.802;4.336;2023-02-15T11:49:30;41.70;;;26.90;;
14470;SDS011;7321;50.802;4.336;2023-02-15T11:52:02;36.30;;;26.43;;
14470;SDS011;7321;50.802;4.336;2023-02-15T11:54:40;38.17;;;27.20;;
14470;SDS011;7321;50.802;4.336;2023-02-15T11:57:23;39.20;;;27.97;;
14470;SDS011;7321;50.802;4.336;2023-02-15T12:02:40;38.23;;;27.87;;
14470;SDS011;7321;50.802;4.336;2023-02-15T12:05:13;40.93;;;27.90;;
14470;SDS011;7321;50.802;4.336;2023-02-15T12:07:48;41.40;;;29.07;;
14470;SDS011;7321;50.802;4.336;2023-02-15T12:10:31;41.77;;;28.73;;
14470;SDS011;7321;50.802;4.336;2023-02-15T12:13:12;39.07;;;28.23;;
14470;SDS011;7321;50.802;4.336;2023-02-15T12:15:47;37.03;;;28.10;;
14470;SDS011;7321;50.802;4.336;2023-02-15T12:18:37;39.07;;;27.53;;
14470;SDS011;7321;50.802;4.336;2023-02-15T12:21:23;40.00;;;28.63;;
14470;SDS011;7321;50.802;4.336;2023-02-15T12:23:52;42.30;;;30.60;;
14470;SDS011;7321;50.802;4.336;2023-02-15T12:26:24;41.63;;;29.30;;
14470;SDS011;7321;50.802;4.336;2023-02-15T12:28:50;41.27;;;30.73;;
14470;SDS011;7321;50.802;4.336;2023-02-15T12:31:20;42.77;;;30.47;;
14470;SDS011;7321;50.802;4.336;2023-02-15T12:33:50;43.37;;;31.60;;
14470;SDS011;7321;50.802;4.336;2023-02-15T12:36:19;44.23;;;32.17;;
14470;SDS011;7321;50.802;4.336;2023-02-15T12:39:04;39.90;;;29.10;;
14470;SDS011;7321;50.802;4.336;2023-02-15T12:42:15;38.80;;;28.37;;
14470;SDS011;7321;50.802;4.336;2023-02-15T12:44:56;42.40;;;30.30;;
14470;SDS011;7321;50.802;4.336;2023-02-15T12:47:24;40.07;;;29.10;;
14470;SDS011;7321;50.802;4.336;2023-02-15T12:52:47;39.73;;;29.47;;
14470;SDS011;7321;50.802;4.336;2023-02-15T13:00:42;38.93;;;28.47;;
14470;SDS011;7321;50.802;4.336;2023-02-15T13:03:15;40.77;;;29.70;;
14470;SDS011;7321;50.802;4.336;2023-02-15T13:05:56;43.97;;;28.10;;
14470;SDS011;7321;50.802;4.336;2023-02-15T13:10:57;40.97;;;29.90;;
14470;SDS011;7321;50.802;4.336;2023-02-15T13:13:34;39.93;;;30.90;;
14470;SDS011;7321;50.802;4.336;2023-02-15T13:16:11;39.77;;;29.73;;
14470;SDS011;7321;50.802;4.336;2023-02-15T13:18:45;41.27;;;31.07;;
14470;SDS011;7321;50.802;4.336;2023-02-15T13:21:19;38.70;;;29.47;;
14470;SDS011;7321;50.802;4.336;2023-02-15T13:24:00;39.93;;;29.80;;
14470;SDS011;7321;50.802;4.336;2023-02-15T13:26:31;45.10;;;32.20;;
14470;SDS011;7321;50.802;4.336;2023-02-15T13:29:01;42.50;;;30.23;;
14470;SDS011;7321;50.802;4.336;2023-02-15T13:31:33;42.73;;;31.77;;
14470;SDS011;7321;50.802;4.336;2023-02-15T13:34:11;42.73;;;32.17;;
14470;SDS011;7321;50.802;4.336;2023-02-15T13:42:20;43.40;;;32.53;;
14470;SDS011;7321;50.802;4.336;2023-02-15T14:02:04;48.77;;;32.97;;
14470;SDS011;7321;50.802;4.336;2023-02-15T14:10:44;48.40;;;33.27;;
14470;SDS011;7321;50.802;4.336;2023-02-15T14:13:51;48.43;;;33.50;;
14470;SDS011;7321;50.802;4.336;2023-02-15T14:18:54;45.87;;;34.53;;
14470;SDS011;7321;50.802;4.336;2023-02-15T14:32:16;49.53;;;35.60;;
14470;SDS011;7321;50.802;4.336;2023-02-15T14:35:15;51.53;;;35.80;;
14470;SDS011;7321;50.802;4.336;2023-02-15T14:40:32;52.70;;;35.27;;
14470;SDS011;7321;50.802;4.336;2023-02-15T14:48:49;52.03;;;35.40;;
14470;SDS011;7321;50.802;4.336;2023-02-15T14:54:52;51.50;;;36.70;;
14470;SDS011;7321;50.802;4.336;2023-02-15T14:59:27;53.83;;;36.63;;
14470;SDS011;7321;50.802;4.336;2023-02-15T15:02:14;47.83;;;36.53;;
14470;SDS011;7321;50.802;4.336;2023-02-15T15:07:36;55.67;;;38.20;;
14470;SDS011;7321;50.802;4.336;2023-02-15T15:18:00;55.80;;;36.33;;
14470;SDS011;7321;50.802;4.336;2023-02-15T15:28:06;50.80;;;37.37;;
14470;SDS011;7321;50.802;4.336;2023-02-15T15:33:19;53.13;;;37.23;;
14470;SDS011;7321;50.802;4.336;2023-02-15T15:41:55;50.63;;;38.03;;
14470;SDS011;7321;50.802;4.336;2023-02-15T15:44:47;49.07;;;37.20;;
14470;SDS011;7321;50.802;4.336;2023-02-15T15:50:15;66.40;;;44.17;;
14470;SDS011;7321;50.802;4.336;2023-02-15T15:52:47;55.23;;;38.67;;
14470;SDS011;7321;50.802;4.336;2023-02-15T15:55:27;54.40;;;38.50;;
14470;SDS011;7321;50.802;4.336;2023-02-15T15:57:57;57.20;;;39.40;;
14470;SDS011;7321;50.802;4.336;2023-02-15T16:00:36;55.40;;;38.50;;
14470;SDS011;7321;50.802;4.336;2023-02-15T16:05:48;51.70;;;36.90;;
14470;SDS011;7321;50.802;4.336;2023-02-15T16:08:27;53.83;;;38.13;;
14470;SDS011;7321;50.802;4.336;2023-02-15T16:11:46;53.13;;;37.43;;
14470;SDS011;7321;50.802;4.336;2023-02-15T16:13:49;50.37;;;36.20;;
14470;SDS011;7321;50.802;4.336;2023-02-15T16:16:22;55.43;;;38.17;;
14470;SDS011;7321;50.802;4.336;2023-02-15T16:18:53;56.60;;;38.50;;
14470;SDS011;7321;50.802;4.336;2023-02-15T16:21:34;52.00;;;36.90;;
14470;SDS011;7321;50.802;4.336;2023-02-15T16:29:33;53.40;;;36.57;;
14470;SDS011;7321;50.802;4.336;2023-02-15T16:34:50;56.03;;;38.33;;
14470;SDS011;7321;50.802;4.336;2023-02-15T16:37:21;54.83;;;38.07;;
14470;SDS011;7321;50.802;4.336;2023-02-15T16:39:51;51.47;;;36.73;;
14470;SDS011;7321;50.802;4.336;2023-02-15T16:42:17;50.50;;;37.17;;
14470;SDS011;7321;50.802;4.336;2023-02-15T16:44:45;54.23;;;38.90;;
14470;SDS011;7321;50.802;4.336;2023-02-15T16:47:17;57.93;;;41.80;;
14470;SDS011;7321;50.802;4.336;2023-02-15T16:49:49;51.57;;;38.07;;
14470;SDS011;7321;50.802;4.336;2023-02-15T16:52:24;51.50;;;38.13;;
14470;SDS011;7321;50.802;4.336;2023-02-15T16:54:55;58.83;;;38.83;;
14470;SDS011;7321;50.802;4.336;2023-02-15T16:57:24;46.67;;;37.03;;
14470;SDS011;7321;50.802;4.336;2023-02-15T16:59:54;57.27;;;37.20;;
14470;SDS011;7321;50.802;4.336;2023-02-15T17:02:29;59.07;;;40.40;;
14470;SDS011;7321;50.802;4.336;2023-02-15T17:07:38;55.13;;;38.63;;
14470;SDS011;7321;50.802;4.336;2023-02-15T17:15:32;55.07;;;40.17;;
14470;SDS011;7321;50.802;4.336;2023-02-15T17:18:01;61.77;;;40.57;;
14470;SDS011;7321;50.802;4.336;2023-02-15T17:20:35;67.37;;;42.83;;
14470;SDS011;7321;50.802;4.336;2023-02-15T17:23:07;62.07;;;41.20;;
14470;SDS011;7321;50.802;4.336;2023-02-15T17:25:49;57.07;;;40.80;;
14470;SDS011;7321;50.802;4.336;2023-02-15T17:28:27;51.13;;;38.10;;
14470;SDS011;7321;50.802;4.336;2023-02-15T17:30:55;54.87;;;37.60;;
14470;SDS011;7321;50.802;4.336;2023-02-15T17:33:35;52.83;;;39.27;;
14470;SDS011;7321;50.802;4.336;2023-02-15T17:36:09;54.80;;;39.23;;
14470;SDS011;7321;50.802;4.336;2023-02-15T17:38:59;56.23;;;38.33;;
14470;SDS011;7321;50.802;4.336;2023-02-15T17:41:31;53.43;;;40.10;;
14470;SDS011;7321;50.802;4.336;2023-02-15T17:44:02;55.43;;;39.47;;
14470;SDS011;7321;50.802;4.336;2023-02-15T17:46:44;58.77;;;40.93;;
14470;SDS011;7321;50.802;4.336;2023-02-15T17:49:14;53.37;;;38.97;;
14470;SDS011;7321;50.802;4.336;2023-02-15T17:51:52;51.37;;;38.20;;
14470;SDS011;7321;50.802;4.336;2023-02-15T17:54:17;56.20;;;39.83;;
14470;SDS011;7321;50.802;4.336;2023-02-15T17:57:02;54.90;;;38.03;;
14470;SDS011;7321;50.802;4.336;2023-02-15T17:59:30;52.57;;;37.97;;
14470;SDS011;7321;50.802;4.336;2023-02-15T18:01:56;54.43;;;38.80;;
14470;SDS011;7321;50.802;4.336;2023-02-15T18:04:41;52.70;;;36.67;;
14470;SDS011;7321;50.802;4.336;2023-02-15T18:07:25;50.47;;;38.73;;
14470;SDS011;7321;50.802;4.336;2023-02-15T18:10:16;50.27;;;37.57;;
14470;SDS011;7321;50.802;4.336;2023-02-15T18:13:01;47.20;;;35.60;;
14470;SDS011;7321;50.802;4.336;2023-02-15T18:15:46;49.73;;;36.10;;
14470;SDS011;7321;50.802;4.336;2023-02-15T18:18:11;52.10;;;37.90;;
14470;SDS011;7321;50.802;4.336;2023-02-15T18:20:38;53.90;;;36.87;;
14470;SDS011;7321;50.802;4.336;2023-02-15T18:23:13;52.57;;;37.40;;
14470;SDS011;7321;50.802;4.336;2023-02-15T18:25:45;49.70;;;39.10;;
14470;SDS011;7321;50.802;4.336;2023-02-15T18:28:11;53.90;;;39.13;;
14470;SDS011;7321;50.802;4.336;2023-02-15T18:30:37;50.93;;;37.83;;
14470;SDS011;7321;50.802;4.336;2023-02-15T18:33:09;51.97;;;38.83;;
14470;SDS011;7321;50.802;4.336;2023-02-15T18:36:05;48.90;;;37.63;;
14470;SDS011;7321;50.802;4.336;2023-02-15T18:38:39;57.07;;;39.67;;
14470;SDS011;7321;50.802;4.336;2023-02-15T18:41:05;53.03;;;38.50;;
14470;SDS011;7321;50.802;4.336;2023-02-15T18:43:30;56.00;;;39.50;;
14470;SDS011;7321;50.802;4.336;2023-02-15T18:45:56;54.50;;;38.97;;
14470;SDS011;7321;50.802;4.336;2023-02-15T18:48:22;47.93;;;37.53;;
14470;SDS011;7321;50.802;4.336;2023-02-15T18:50:48;50.63;;;37.77;;